sensor_id;sensor_type;location;lat;lon;timestamp;temperature;humidity
16781;DHT22;8507;50.056;8.248;2023-05-10T00:00:13;14.50;99.90
16781;DHT22;8507;50.056;8.248;2023-05-10T00:02:39;14.50;99.90
16781;DHT22;8507;50.056;8.248;2023-05-10T00:05:06;14.40;99.90
16781;DHT22;8507;50.056;8.248;2023-05-10T00:07:32;14.40;99.90
16781;DHT22;8507;50.056;8.248;2023-05-10T00:09:57;14.40;99.90
16781;DHT22;8507;50.056;8.248;2023-05-10T00:12:23;14.30;99.90
16781;DHT22;8507;50.056;8.248;2023-05-10T00:14:49;14.20;99.90
16781;DHT22;8507;50.056;8.248;2023-05-10T00:17:15;14.20;99.90
16781;DHT22;8507;50.056;8.248;2023-05-10T00:19:40;14.20;99.90
16781;DHT22;8507;50.056;8.248;2023-05-10T00:22:06;14.20;99.90
16781;DHT22;8507;50.056;8.248;2023-05-10T00:24:31;14.20;99.90
16781;DHT22;8507;50.056;8.248;2023-05-10T00:26:57;14.20;99.90
16781;DHT22;8507;50.056;8.248;2023-05-10T00:29:22;14.20;99.90
16781;DHT22;8507;50.056;8.248;2023-05-10T00:31:48;14.30;99.90
16781;DHT22;8507;50.056;8.248;2023-05-10T00:34:13;14.20;99.90
16781;DHT22;8507;50.056;8.248;2023-05-10T00:36:39;14.20;99.90
16781;DHT22;8507;50.056;8.248;2023-05-10T00:39:04;14.30;99.90
16781;DHT22;8507;50.056;8.248;2023-05-10T00:41:30;14.30;99.90
16781;DHT22;8507;50.056;8.248;2023-05-10T00:43:58;14.30;99.90
16781;DHT22;8507;50.056;8.248;2023-05-10T00:46:24;14.30;99.90
16781;DHT22;8507;50.056;8.248;2023-05-10T00:48:51;14.30;99.90
16781;DHT22;8507;50.056;8.248;2023-05-10T00:51:17;14.30;99.90
16781;DHT22;8507;50.056;8.248;2023-05-10T00:53:45;14.30;99.90
16781;DHT22;8507;50.056;8.248;2023-05-10T00:56:11;14.30;99.90
16781;DHT22;8507;50.056;8.248;2023-05-10T00:58:37;14.30;99.90
16781;DHT22;8507;50.056;8.248;2023-05-10T01:01:04;14.30;99.90
16781;DHT22;8507;50.056;8.248;2023-05-10T01:03:31;14.30;99.90
16781;DHT22;8507;50.056;8.248;2023-05-10T01:05:57;14.30;99.90
16781;DHT22;8507;50.056;8.248;2023-05-10T01:08:23;14.30;99.90
16781;DHT22;8507;50.056;8.248;2023-05-10T01:10:48;14.30;99.90
16781;DHT22;8507;50.056;8.248;2023-05-10T01:13:23;14.30;99.90
16781;DHT22;8507;50.056;8.248;2023-05-10T01:15:52;14.20;99.90
16781;DHT22;8507;50.056;8.248;2023-05-10T01:18:20;14.20;99.90
16781;DHT22;8507;50.056;8.248;2023-05-10T01:20:48;14.20;99.90
16781;DHT22;8507;50.056;8.248;2023-05-10T01:29:11;14.10;99.90
16781;DHT22;8507;50.056;8.248;2023-05-10T01:32:14;14.10;99.90
16781;DHT22;8507;50.056;8.248;2023-05-10T01:35:05;14.10;99.90
16781;DHT22;8507;50.056;8.248;2023-05-10T01:42:53;13.90;99.90
16781;DHT22;8507;50.056;8.248;2023-05-10T01:45:45;13.90;99.90
16781;DHT22;8507;50.056;8.248;2023-05-10T01:48:14;13.90;99.90
16781;DHT22;8507;50.056;8.248;2023-05-10T01:50:43;13.90;99.90
16781;DHT22;8507;50.056;8.248;2023-05-10T01:53:10;14.00;99.90
16781;DHT22;8507;50.056;8.248;2023-05-10T01:55:43;14.00;99.90
16781;DHT22;8507;50.056;8.248;2023-05-10T01:58:15;14.10;99.90
16781;DHT22;8507;50.056;8.248;2023-05-10T02:00:47;14.10;99.90
16781;DHT22;8507;50.056;8.248;2023-05-10T02:03:14;14.10;99.90
16781;DHT22;8507;50.056;8.248;2023-05-10T02:05:41;14.10;99.90
16781;DHT22;8507;50.056;8.248;2023-05-10T02:08:09;14.20;99.90
16781;DHT22;8507;50.056;8.248;2023-05-10T02:10:36;14.20;99.90
16781;DHT22;8507;50.056;8.248;2023-05-10T02:13:03;14.20;99.90
16781;DHT22;8507;50.056;8.248;2023-05-10T02:15:31;14.20;99.90
16781;DHT22;8507;50.056;8.248;2023-05-10T02:17:58;14.20;99.90
16781;DHT22;8507;50.056;8.248;2023-05-10T02:20:26;14.20;99.90
16781;DHT22;8507;50.056;8.248;2023-05-10T02:22:54;14.20;99.90
16781;DHT22;8507;50.056;8.248;2023-05-10T02:25:22;14.20;99.90
16781;DHT22;8507;50.056;8.248;2023-05-10T02:27:48;14.20;99.90
16781;DHT22;8507;50.056;8.248;2023-05-10T02:30:15;14.20;99.90
16781;DHT22;8507;50.056;8.248;2023-05-10T02:32:42;14.20;99.90
16781;DHT22;8507;50.056;8.248;2023-05-10T02:35:09;14.20;99.90
16781;DHT22;8507;50.056;8.248;2023-05-10T02:37:37;14.20;99.90
16781;DHT22;8507;50.056;8.248;2023-05-10T02:40:05;14.20;99.90
16781;DHT22;8507;50.056;8.248;2023-05-10T02:42:35;14.20;99.90
16781;DHT22;8507;50.056;8.248;2023-05-10T02:45:03;14.20;99.90
16781;DHT22;8507;50.056;8.248;2023-05-10T02:47:30;14.20;99.90
16781;DHT22;8507;50.056;8.248;2023-05-10T02:49:56;14.20;99.90
16781;DHT22;8507;50.056;8.248;2023-05-10T02:52:25;14.20;99.90
16781;DHT22;8507;50.056;8.248;2023-05-10T02:54:55;14.10;99.90
16781;DHT22;8507;50.056;8.248;2023-05-10T02:57:27;14.00;99.90
16781;DHT22;8507;50.056;8.248;2023-05-10T02:59:54;13.90;99.90
16781;DHT22;8507;50.056;8.248;2023-05-10T03:02:20;14.00;99.90
16781;DHT22;8507;50.056;8.248;2023-05-10T03:04:46;14.10;99.90
16781;DHT22;8507;50.056;8.248;2023-05-10T03:07:11;14.30;99.90
16781;DHT22;8507;50.056;8.248;2023-05-10T03:09:37;14.40;99.90
16781;DHT22;8507;50.056;8.248;2023-05-10T03:12:21;14.40;99.90
16781;DHT22;8507;50.056;8.248;2023-05-10T03:15:05;14.40;99.90
16781;DHT22;8507;50.056;8.248;2023-05-10T03:20:49;14.40;99.90
16781;DHT22;8507;50.056;8.248;2023-05-10T03:25:44;14.50;99.90
16781;DHT22;8507;50.056;8.248;2023-05-10T03:28:11;14.40;99.90
16781;DHT22;8507;50.056;8.248;2023-05-10T03:30:37;14.50;99.90
16781;DHT22;8507;50.056;8.248;2023-05-10T03:33:07;14.50;99.90
16781;DHT22;8507;50.056;8.248;2023-05-10T03:35:32;14.50;99.90
16781;DHT22;8507;50.056;8.248;2023-05-10T03:37:58;14.50;99.90
16781;DHT22;8507;50.056;8.248;2023-05-10T03:40:24;14.50;99.90
16781;DHT22;8507;50.056;8.248;2023-05-10T03:42:51;14.40;99.90
16781;DHT22;8507;50.056;8.248;2023-05-10T03:45:16;14.50;99.90
16781;DHT22;8507;50.056;8.248;2023-05-10T03:47:42;14.60;99.90
16781;DHT22;8507;50.056;8.248;2023-05-10T03:50:08;14.60;99.90
16781;DHT22;8507;50.056;8.248;2023-05-10T03:52:33;14.70;99.90
16781;DHT22;8507;50.056;8.248;2023-05-10T03:54:59;14.70;99.90
16781;DHT22;8507;50.056;8.248;2023-05-10T03:57:24;14.70;99.90
16781;DHT22;8507;50.056;8.248;2023-05-10T03:59:50;14.70;99.90
16781;DHT22;8507;50.056;8.248;2023-05-10T04:02:15;14.70;99.90
16781;DHT22;8507;50.056;8.248;2023-05-10T04:04:41;14.70;99.90
16781;DHT22;8507;50.056;8.248;2023-05-10T04:07:07;14.70;99.90
16781;DHT22;8507;50.056;8.248;2023-05-10T04:09:32;14.60;99.90
16781;DHT22;8507;50.056;8.248;2023-05-10T04:11:59;14.50;99.90
16781;DHT22;8507;50.056;8.248;2023-05-10T04:14:25;14.50;99.90
16781;DHT22;8507;50.056;8.248;2023-05-10T04:16:51;14.50;99.90
16781;DHT22;8507;50.056;8.248;2023-05-10T04:19:16;14.40;99.90
16781;DHT22;8507;50.056;8.248;2023-05-10T04:21:42;14.50;99.90
16781;DHT22;8507;50.056;8.248;2023-05-10T04:24:07;14.50;99.90
16781;DHT22;8507;50.056;8.248;2023-05-10T04:26:33;14.50;99.90
16781;DHT22;8507;50.056;8.248;2023-05-10T04:28:58;14.50;99.90
16781;DHT22;8507;50.056;8.248;2023-05-10T04:31:24;14.50;99.90
16781;DHT22;8507;50.056;8.248;2023-05-10T04:33:49;14.40;99.90
16781;DHT22;8507;50.056;8.248;2023-05-10T04:36:15;14.50;99.90
16781;DHT22;8507;50.056;8.248;2023-05-10T04:38:40;14.60;99.90
16781;DHT22;8507;50.056;8.248;2023-05-10T04:41:08;14.50;99.90
16781;DHT22;8507;50.056;8.248;2023-05-10T04:43:34;14.60;99.90
16781;DHT22;8507;50.056;8.248;2023-05-10T04:46:00;14.60;99.90
16781;DHT22;8507;50.056;8.248;2023-05-10T04:48:26;14.60;99.90
16781;DHT22;8507;50.056;8.248;2023-05-10T04:50:52;14.70;99.90
16781;DHT22;8507;50.056;8.248;2023-05-10T04:53:17;14.60;99.90
16781;DHT22;8507;50.056;8.248;2023-05-10T04:55:43;14.60;99.90
16781;DHT22;8507;50.056;8.248;2023-05-10T04:58:08;14.50;99.90
16781;DHT22;8507;50.056;8.248;2023-05-10T05:00:34;14.60;99.90
16781;DHT22;8507;50.056;8.248;2023-05-10T05:02:59;14.60;99.90
16781;DHT22;8507;50.056;8.248;2023-05-10T05:05:25;14.60;99.90
16781;DHT22;8507;50.056;8.248;2023-05-10T05:07:50;14.60;99.90
16781;DHT22;8507;50.056;8.248;2023-05-10T05:10:16;14.60;99.90
16781;DHT22;8507;50.056;8.248;2023-05-10T05:12:41;14.60;99.90
16781;DHT22;8507;50.056;8.248;2023-05-10T05:15:07;14.60;99.90
16781;DHT22;8507;50.056;8.248;2023-05-10T05:17:35;14.50;99.90
16781;DHT22;8507;50.056;8.248;2023-05-10T05:20:00;14.50;99.90
16781;DHT22;8507;50.056;8.248;2023-05-10T05:22:26;14.40;99.90
16781;DHT22;8507;50.056;8.248;2023-05-10T05:24:55;14.40;99.90
16781;DHT22;8507;50.056;8.248;2023-05-10T05:27:20;14.40;99.90
16781;DHT22;8507;50.056;8.248;2023-05-10T05:29:52;14.50;99.90
16781;DHT22;8507;50.056;8.248;2023-05-10T05:32:18;14.50;99.90
16781;DHT22;8507;50.056;8.248;2023-05-10T05:34:46;14.50;99.90
16781;DHT22;8507;50.056;8.248;2023-05-10T05:37:14;14.60;99.90
16781;DHT22;8507;50.056;8.248;2023-05-10T05:39:40;14.60;99.90
16781;DHT22;8507;50.056;8.248;2023-05-10T05:42:06;14.70;99.90
16781;DHT22;8507;50.056;8.248;2023-05-10T05:44:32;14.60;99.90
16781;DHT22;8507;50.056;8.248;2023-05-10T05:46:57;14.70;99.90
16781;DHT22;8507;50.056;8.248;2023-05-10T05:49:23;14.60;99.90
16781;DHT22;8507;50.056;8.248;2023-05-10T05:51:48;14.70;99.90
16781;DHT22;8507;50.056;8.248;2023-05-10T05:54:15;14.70;99.90
16781;DHT22;8507;50.056;8.248;2023-05-10T05:56:41;14.80;99.90
16781;DHT22;8507;50.056;8.248;2023-05-10T05:59:06;14.90;99.90
16781;DHT22;8507;50.056;8.248;2023-05-10T06:01:32;14.90;99.90
16781;DHT22;8507;50.056;8.248;2023-05-10T06:03:57;14.80;99.90
16781;DHT22;8507;50.056;8.248;2023-05-10T06:06:23;14.80;99.90
16781;DHT22;8507;50.056;8.248;2023-05-10T06:08:48;14.80;99.90
16781;DHT22;8507;50.056;8.248;2023-05-10T06:11:14;14.80;99.90
16781;DHT22;8507;50.056;8.248;2023-05-10T06:13:39;14.80;99.90
16781;DHT22;8507;50.056;8.248;2023-05-10T06:16:05;14.90;99.90
16781;DHT22;8507;50.056;8.248;2023-05-10T06:18:31;15.00;99.90
16781;DHT22;8507;50.056;8.248;2023-05-10T06:20:56;15.20;99.90
16781;DHT22;8507;50.056;8.248;2023-05-10T06:23:22;15.40;99.90
16781;DHT22;8507;50.056;8.248;2023-05-10T06:25:48;15.50;99.90
16781;DHT22;8507;50.056;8.248;2023-05-10T06:28:14;15.70;99.90
16781;DHT22;8507;50.056;8.248;2023-05-10T06:30:39;15.90;99.90
16781;DHT22;8507;50.056;8.248;2023-05-10T06:33:05;16.10;99.90
16781;DHT22;8507;50.056;8.248;2023-05-10T06:35:30;16.20;99.90
16781;DHT22;8507;50.056;8.248;2023-05-10T06:37:57;16.50;99.90
16781;DHT22;8507;50.056;8.248;2023-05-10T06:40:23;16.60;99.90
16781;DHT22;8507;50.056;8.248;2023-05-10T06:42:49;16.80;99.90
16781;DHT22;8507;50.056;8.248;2023-05-10T06:45:15;16.60;99.90
16781;DHT22;8507;50.056;8.248;2023-05-10T06:47:41;16.80;99.90
16781;DHT22;8507;50.056;8.248;2023-05-10T06:50:08;16.70;99.90
16781;DHT22;8507;50.056;8.248;2023-05-10T06:52:34;16.50;99.90
16781;DHT22;8507;50.056;8.248;2023-05-10T06:54:59;16.50;99.90
16781;DHT22;8507;50.056;8.248;2023-05-10T06:57:25;16.50;99.90
16781;DHT22;8507;50.056;8.248;2023-05-10T06:59:51;16.40;99.90
16781;DHT22;8507;50.056;8.248;2023-05-10T07:02:17;16.30;99.90
16781;DHT22;8507;50.056;8.248;2023-05-10T07:04:43;16.40;99.90
16781;DHT22;8507;50.056;8.248;2023-05-10T07:07:08;16.70;99.90
16781;DHT22;8507;50.056;8.248;2023-05-10T07:09:34;16.80;99.90
16781;DHT22;8507;50.056;8.248;2023-05-10T07:11:59;16.80;99.90
16781;DHT22;8507;50.056;8.248;2023-05-10T07:14:27;16.90;99.90
16781;DHT22;8507;50.056;8.248;2023-05-10T07:16:52;17.10;99.90
16781;DHT22;8507;50.056;8.248;2023-05-10T07:19:18;17.10;99.90
16781;DHT22;8507;50.056;8.248;2023-05-10T07:21:45;17.40;99.90
16781;DHT22;8507;50.056;8.248;2023-05-10T07:24:10;17.50;99.90
16781;DHT22;8507;50.056;8.248;2023-05-10T07:26:36;17.40;99.90
16781;DHT22;8507;50.056;8.248;2023-05-10T07:29:01;17.40;99.90
16781;DHT22;8507;50.056;8.248;2023-05-10T07:31:27;17.40;99.90
16781;DHT22;8507;50.056;8.248;2023-05-10T07:33:53;17.60;99.90
16781;DHT22;8507;50.056;8.248;2023-05-10T07:36:18;17.50;99.90
16781;DHT22;8507;50.056;8.248;2023-05-10T07:38:44;17.50;99.90
16781;DHT22;8507;50.056;8.248;2023-05-10T07:41:10;17.60;99.90
16781;DHT22;8507;50.056;8.248;2023-05-10T07:43:36;17.70;99.90
16781;DHT22;8507;50.056;8.248;2023-05-10T07:46:01;17.70;99.90
16781;DHT22;8507;50.056;8.248;2023-05-10T07:48:27;17.60;99.90
16781;DHT22;8507;50.056;8.248;2023-05-10T07:50:52;17.60;99.90
16781;DHT22;8507;50.056;8.248;2023-05-10T07:53:18;17.60;99.90
16781;DHT22;8507;50.056;8.248;2023-05-10T07:55:44;17.40;99.90
16781;DHT22;8507;50.056;8.248;2023-05-10T07:58:10;17.30;99.90
16781;DHT22;8507;50.056;8.248;2023-05-10T08:00:35;17.30;99.90
16781;DHT22;8507;50.056;8.248;2023-05-10T08:03:04;17.20;99.90
16781;DHT22;8507;50.056;8.248;2023-05-10T08:05:29;17.10;99.90
16781;DHT22;8507;50.056;8.248;2023-05-10T08:07:55;17.10;99.90
16781;DHT22;8507;50.056;8.248;2023-05-10T08:10:21;17.00;99.90
16781;DHT22;8507;50.056;8.248;2023-05-10T08:12:46;17.00;99.90
16781;DHT22;8507;50.056;8.248;2023-05-10T08:15:11;17.00;99.90
16781;DHT22;8507;50.056;8.248;2023-05-10T08:17:37;17.00;99.90
16781;DHT22;8507;50.056;8.248;2023-05-10T08:20:03;17.00;99.90
16781;DHT22;8507;50.056;8.248;2023-05-10T08:22:28;17.10;99.90
16781;DHT22;8507;50.056;8.248;2023-05-10T08:24:54;17.10;99.90
16781;DHT22;8507;50.056;8.248;2023-05-10T08:27:19;17.30;99.90
16781;DHT22;8507;50.056;8.248;2023-05-10T08:29:45;17.50;99.90
16781;DHT22;8507;50.056;8.248;2023-05-10T08:32:10;17.90;99.90
16781;DHT22;8507;50.056;8.248;2023-05-10T08:34:36;18.30;99.90
16781;DHT22;8507;50.056;8.248;2023-05-10T08:37:01;18.50;99.90
16781;DHT22;8507;50.056;8.248;2023-05-10T08:39:27;18.50;99.90
16781;DHT22;8507;50.056;8.248;2023-05-10T08:41:54;18.80;99.90
16781;DHT22;8507;50.056;8.248;2023-05-10T08:44:21;18.80;99.90
16781;DHT22;8507;50.056;8.248;2023-05-10T08:46:47;19.00;99.90
16781;DHT22;8507;50.056;8.248;2023-05-10T08:49:20;18.80;99.90
16781;DHT22;8507;50.056;8.248;2023-05-10T08:51:51;18.80;99.90
16781;DHT22;8507;50.056;8.248;2023-05-10T08:54:21;18.80;99.90
16781;DHT22;8507;50.056;8.248;2023-05-10T08:56:46;18.30;99.90
16781;DHT22;8507;50.056;8.248;2023-05-10T08:59:12;17.80;99.90
16781;DHT22;8507;50.056;8.248;2023-05-10T09:01:39;17.40;99.90
16781;DHT22;8507;50.056;8.248;2023-05-10T09:04:05;17.20;99.90
16781;DHT22;8507;50.056;8.248;2023-05-10T09:06:31;17.20;99.90
16781;DHT22;8507;50.056;8.248;2023-05-10T09:08:57;17.20;99.90
16781;DHT22;8507;50.056;8.248;2023-05-10T09:11:24;17.40;99.90
16781;DHT22;8507;50.056;8.248;2023-05-10T09:13:50;17.60;99.90
16781;DHT22;8507;50.056;8.248;2023-05-10T09:16:16;18.00;99.90
16781;DHT22;8507;50.056;8.248;2023-05-10T09:18:42;18.30;99.90
16781;DHT22;8507;50.056;8.248;2023-05-10T09:21:08;18.70;99.90
16781;DHT22;8507;50.056;8.248;2023-05-10T09:23:35;18.90;99.90
16781;DHT22;8507;50.056;8.248;2023-05-10T09:26:04;19.30;99.90
16781;DHT22;8507;50.056;8.248;2023-05-10T09:28:34;19.60;99.90
16781;DHT22;8507;50.056;8.248;2023-05-10T09:31:15;19.80;99.90
16781;DHT22;8507;50.056;8.248;2023-05-10T09:33:44;19.90;99.90
16781;DHT22;8507;50.056;8.248;2023-05-10T09:36:11;19.80;99.90
16781;DHT22;8507;50.056;8.248;2023-05-10T09:38:51;19.10;99.90
16781;DHT22;8507;50.056;8.248;2023-05-10T09:41:23;18.40;99.90
16781;DHT22;8507;50.056;8.248;2023-05-10T09:43:49;17.60;99.90
16781;DHT22;8507;50.056;8.248;2023-05-10T09:46:16;17.00;99.90
16781;DHT22;8507;50.056;8.248;2023-05-10T09:48:46;16.80;99.90
16781;DHT22;8507;50.056;8.248;2023-05-10T09:51:25;16.60;99.90
16781;DHT22;8507;50.056;8.248;2023-05-10T09:54:11;16.50;99.90
16781;DHT22;8507;50.056;8.248;2023-05-10T09:56:38;16.70;99.90
16781;DHT22;8507;50.056;8.248;2023-05-10T09:59:06;16.70;99.90
16781;DHT22;8507;50.056;8.248;2023-05-10T10:01:33;17.00;99.90
16781;DHT22;8507;50.056;8.248;2023-05-10T10:04:02;17.50;99.90
16781;DHT22;8507;50.056;8.248;2023-05-10T10:06:29;17.80;99.90
16781;DHT22;8507;50.056;8.248;2023-05-10T10:08:54;18.20;99.90
16781;DHT22;8507;50.056;8.248;2023-05-10T10:11:21;18.50;99.90
16781;DHT22;8507;50.056;8.248;2023-05-10T10:13:47;19.00;99.90
16781;DHT22;8507;50.056;8.248;2023-05-10T10:16:13;19.30;99.90
16781;DHT22;8507;50.056;8.248;2023-05-10T10:18:39;19.40;99.90
16781;DHT22;8507;50.056;8.248;2023-05-10T10:21:07;19.30;99.90
16781;DHT22;8507;50.056;8.248;2023-05-10T10:23:35;19.30;99.90
16781;DHT22;8507;50.056;8.248;2023-05-10T10:26:03;19.40;99.90
16781;DHT22;8507;50.056;8.248;2023-05-10T10:34:06;19.50;99.90
16781;DHT22;8507;50.056;8.248;2023-05-10T10:36:40;19.40;99.90
16781;DHT22;8507;50.056;8.248;2023-05-10T10:39:09;19.10;99.90
16781;DHT22;8507;50.056;8.248;2023-05-10T10:41:37;19.00;99.90
16781;DHT22;8507;50.056;8.248;2023-05-10T10:49:42;19.30;99.90
16781;DHT22;8507;50.056;8.248;2023-05-10T10:52:35;19.50;99.90
16781;DHT22;8507;50.056;8.248;2023-05-10T11:05:40;19.70;99.90
16781;DHT22;8507;50.056;8.248;2023-05-10T11:10:48;19.90;99.90
16781;DHT22;8507;50.056;8.248;2023-05-10T11:13:14;19.90;99.90
16781;DHT22;8507;50.056;8.248;2023-05-10T11:15:43;20.10;99.90
16781;DHT22;8507;50.056;8.248;2023-05-10T11:18:20;20.20;99.90
16781;DHT22;8507;50.056;8.248;2023-05-10T11:21:12;20.40;99.90
16781;DHT22;8507;50.056;8.248;2023-05-10T11:26:09;20.30;99.90
16781;DHT22;8507;50.056;8.248;2023-05-10T11:28:41;20.20;99.90
16781;DHT22;8507;50.056;8.248;2023-05-10T11:31:07;20.30;99.90
16781;DHT22;8507;50.056;8.248;2023-05-10T11:33:45;20.00;99.90
16781;DHT22;8507;50.056;8.248;2023-05-10T11:36:23;19.60;99.90
16781;DHT22;8507;50.056;8.248;2023-05-10T11:38:48;19.60;99.90
16781;DHT22;8507;50.056;8.248;2023-05-10T11:41:16;20.00;99.90
16781;DHT22;8507;50.056;8.248;2023-05-10T11:43:43;20.00;99.90
16781;DHT22;8507;50.056;8.248;2023-05-10T11:46:11;20.20;99.90
16781;DHT22;8507;50.056;8.248;2023-05-10T11:48:39;20.40;99.90
16781;DHT22;8507;50.056;8.248;2023-05-10T11:51:06;20.50;99.90
16781;DHT22;8507;50.056;8.248;2023-05-10T11:53:33;20.80;99.90
16781;DHT22;8507;50.056;8.248;2023-05-10T11:56:09;21.10;99.90
16781;DHT22;8507;50.056;8.248;2023-05-10T11:58:37;21.20;99.90
16781;DHT22;8507;50.056;8.248;2023-05-10T12:01:05;21.20;99.90
16781;DHT22;8507;50.056;8.248;2023-05-10T12:03:31;21.50;99.90
16781;DHT22;8507;50.056;8.248;2023-05-10T12:05:57;21.40;99.90
16781;DHT22;8507;50.056;8.248;2023-05-10T12:08:25;21.50;99.90
16781;DHT22;8507;50.056;8.248;2023-05-10T12:10:51;21.70;99.90
16781;DHT22;8507;50.056;8.248;2023-05-10T12:13:18;21.60;99.90
16781;DHT22;8507;50.056;8.248;2023-05-10T12:15:44;21.40;99.90
16781;DHT22;8507;50.056;8.248;2023-05-10T12:18:11;21.10;99.90
16781;DHT22;8507;50.056;8.248;2023-05-10T12:20:36;20.70;99.90
16781;DHT22;8507;50.056;8.248;2023-05-10T12:23:03;20.70;99.90
16781;DHT22;8507;50.056;8.248;2023-05-10T12:25:38;20.50;99.90
16781;DHT22;8507;50.056;8.248;2023-05-10T12:28:07;20.30;99.90
16781;DHT22;8507;50.056;8.248;2023-05-10T12:30:34;20.40;99.90
16781;DHT22;8507;50.056;8.248;2023-05-10T12:33:22;20.50;99.90
16781;DHT22;8507;50.056;8.248;2023-05-10T12:35:51;20.80;99.90
16781;DHT22;8507;50.056;8.248;2023-05-10T12:38:33;20.70;99.90
16781;DHT22;8507;50.056;8.248;2023-05-10T12:41:00;20.40;99.90
16781;DHT22;8507;50.056;8.248;2023-05-10T12:43:26;20.10;99.90
16781;DHT22;8507;50.056;8.248;2023-05-10T12:45:52;20.10;99.90
16781;DHT22;8507;50.056;8.248;2023-05-10T12:48:18;20.10;99.90
16781;DHT22;8507;50.056;8.248;2023-05-10T12:50:43;20.10;99.90
16781;DHT22;8507;50.056;8.248;2023-05-10T12:53:09;20.20;99.90
16781;DHT22;8507;50.056;8.248;2023-05-10T12:55:34;20.30;99.90
16781;DHT22;8507;50.056;8.248;2023-05-10T12:58:00;20.40;99.90
16781;DHT22;8507;50.056;8.248;2023-05-10T13:00:26;20.40;99.90
16781;DHT22;8507;50.056;8.248;2023-05-10T13:02:51;20.20;99.90
16781;DHT22;8507;50.056;8.248;2023-05-10T13:05:17;20.20;99.90
16781;DHT22;8507;50.056;8.248;2023-05-10T13:07:43;20.20;99.90
16781;DHT22;8507;50.056;8.248;2023-05-10T13:10:09;20.30;99.90
16781;DHT22;8507;50.056;8.248;2023-05-10T13:12:35;20.40;99.90
16781;DHT22;8507;50.056;8.248;2023-05-10T13:15:02;20.20;99.90
16781;DHT22;8507;50.056;8.248;2023-05-10T13:17:28;20.20;99.90
16781;DHT22;8507;50.056;8.248;2023-05-10T13:19:54;20.20;99.90
16781;DHT22;8507;50.056;8.248;2023-05-10T13:22:20;20.20;99.90
16781;DHT22;8507;50.056;8.248;2023-05-10T13:24:45;20.20;99.90
16781;DHT22;8507;50.056;8.248;2023-05-10T13:27:11;20.30;99.90
16781;DHT22;8507;50.056;8.248;2023-05-10T13:29:36;20.50;99.90
16781;DHT22;8507;50.056;8.248;2023-05-10T13:32:02;20.60;99.90
16781;DHT22;8507;50.056;8.248;2023-05-10T13:34:27;20.80;99.90
16781;DHT22;8507;50.056;8.248;2023-05-10T13:36:53;21.00;99.90
16781;DHT22;8507;50.056;8.248;2023-05-10T13:39:20;20.80;99.90
16781;DHT22;8507;50.056;8.248;2023-05-10T13:41:45;21.00;99.90
16781;DHT22;8507;50.056;8.248;2023-05-10T13:44:12;21.20;99.90
16781;DHT22;8507;50.056;8.248;2023-05-10T13:46:39;21.40;99.90
16781;DHT22;8507;50.056;8.248;2023-05-10T13:49:04;21.30;99.90
16781;DHT22;8507;50.056;8.248;2023-05-10T13:51:30;21.20;99.90
16781;DHT22;8507;50.056;8.248;2023-05-10T13:53:57;21.20;99.90
16781;DHT22;8507;50.056;8.248;2023-05-10T13:56:23;21.00;99.90
16781;DHT22;8507;50.056;8.248;2023-05-10T13:58:48;20.70;99.90
16781;DHT22;8507;50.056;8.248;2023-05-10T14:01:14;20.80;99.90
16781;DHT22;8507;50.056;8.248;2023-05-10T14:03:39;20.90;99.90
16781;DHT22;8507;50.056;8.248;2023-05-10T14:06:05;21.00;99.90
16781;DHT22;8507;50.056;8.248;2023-05-10T14:08:32;21.30;99.90
16781;DHT22;8507;50.056;8.248;2023-05-10T14:10:58;21.40;99.90
16781;DHT22;8507;50.056;8.248;2023-05-10T14:13:23;21.30;99.90
16781;DHT22;8507;50.056;8.248;2023-05-10T14:15:50;21.20;99.90
16781;DHT22;8507;50.056;8.248;2023-05-10T14:18:16;21.20;99.90
16781;DHT22;8507;50.056;8.248;2023-05-10T14:20:41;21.10;99.90
16781;DHT22;8507;50.056;8.248;2023-05-10T14:23:07;21.20;99.90
16781;DHT22;8507;50.056;8.248;2023-05-10T14:25:32;21.10;99.90
16781;DHT22;8507;50.056;8.248;2023-05-10T14:27:58;20.90;99.90
16781;DHT22;8507;50.056;8.248;2023-05-10T14:30:24;20.90;99.90
16781;DHT22;8507;50.056;8.248;2023-05-10T14:32:49;20.90;99.90
16781;DHT22;8507;50.056;8.248;2023-05-10T14:35:15;20.90;99.90
16781;DHT22;8507;50.056;8.248;2023-05-10T14:37:41;21.00;99.90
16781;DHT22;8507;50.056;8.248;2023-05-10T14:40:06;20.90;99.90
16781;DHT22;8507;50.056;8.248;2023-05-10T14:42:32;21.20;99.90
16781;DHT22;8507;50.056;8.248;2023-05-10T14:44:58;21.20;99.90
16781;DHT22;8507;50.056;8.248;2023-05-10T14:47:23;21.20;99.90
16781;DHT22;8507;50.056;8.248;2023-05-10T14:49:49;21.30;99.90
16781;DHT22;8507;50.056;8.248;2023-05-10T14:52:14;21.30;99.90
16781;DHT22;8507;50.056;8.248;2023-05-10T14:54:40;21.40;99.90
16781;DHT22;8507;50.056;8.248;2023-05-10T14:57:06;21.30;99.90
16781;DHT22;8507;50.056;8.248;2023-05-10T14:59:32;21.30;99.90
16781;DHT22;8507;50.056;8.248;2023-05-10T15:01:58;21.40;99.90
16781;DHT22;8507;50.056;8.248;2023-05-10T15:04:24;21.30;99.90
16781;DHT22;8507;50.056;8.248;2023-05-10T15:06:49;21.30;99.90
16781;DHT22;8507;50.056;8.248;2023-05-10T15:09:15;21.20;99.90
16781;DHT22;8507;50.056;8.248;2023-05-10T15:11:41;21.10;99.90
16781;DHT22;8507;50.056;8.248;2023-05-10T15:14:07;21.00;99.90
16781;DHT22;8507;50.056;8.248;2023-05-10T15:16:32;20.90;99.90
16781;DHT22;8507;50.056;8.248;2023-05-10T15:18:58;20.80;99.90
16781;DHT22;8507;50.056;8.248;2023-05-10T15:21:23;20.80;99.90
16781;DHT22;8507;50.056;8.248;2023-05-10T15:23:49;20.80;99.90
16781;DHT22;8507;50.056;8.248;2023-05-10T15:26:15;20.80;99.90
16781;DHT22;8507;50.056;8.248;2023-05-10T15:28:41;20.90;99.90
16781;DHT22;8507;50.056;8.248;2023-05-10T15:31:06;21.00;99.90
16781;DHT22;8507;50.056;8.248;2023-05-10T15:33:32;20.90;99.90
16781;DHT22;8507;50.056;8.248;2023-05-10T15:35:57;20.80;99.90
16781;DHT22;8507;50.056;8.248;2023-05-10T15:38:23;20.80;99.90
16781;DHT22;8507;50.056;8.248;2023-05-10T15:40:48;20.90;99.90
16781;DHT22;8507;50.056;8.248;2023-05-10T15:43:14;21.00;99.90
16781;DHT22;8507;50.056;8.248;2023-05-10T15:45:40;20.90;99.90
16781;DHT22;8507;50.056;8.248;2023-05-10T15:48:05;20.90;99.90
16781;DHT22;8507;50.056;8.248;2023-05-10T15:50:31;20.90;99.90
16781;DHT22;8507;50.056;8.248;2023-05-10T15:52:57;20.80;99.90
16781;DHT22;8507;50.056;8.248;2023-05-10T15:55:22;20.90;99.90
16781;DHT22;8507;50.056;8.248;2023-05-10T15:57:48;21.00;99.90
16781;DHT22;8507;50.056;8.248;2023-05-10T16:00:14;21.00;99.90
16781;DHT22;8507;50.056;8.248;2023-05-10T16:02:40;21.10;99.90
16781;DHT22;8507;50.056;8.248;2023-05-10T16:05:06;21.10;99.90
16781;DHT22;8507;50.056;8.248;2023-05-10T16:07:32;21.10;99.90
16781;DHT22;8507;50.056;8.248;2023-05-10T16:09:58;21.10;99.90
16781;DHT22;8507;50.056;8.248;2023-05-10T16:12:24;21.00;99.90
16781;DHT22;8507;50.056;8.248;2023-05-10T16:14:49;20.70;99.90
16781;DHT22;8507;50.056;8.248;2023-05-10T16:17:15;20.70;99.90
16781;DHT22;8507;50.056;8.248;2023-05-10T16:19:40;20.60;99.90
16781;DHT22;8507;50.056;8.248;2023-05-10T16:22:06;20.40;99.90
16781;DHT22;8507;50.056;8.248;2023-05-10T16:24:32;20.20;99.90
16781;DHT22;8507;50.056;8.248;2023-05-10T16:26:57;20.00;99.90